createdAt,value
2018-04-12T00:01:17.151Z,62.20
2018-04-12T00:03:46.147Z,60.30
2018-04-12T00:06:15.322Z,61.40
2018-04-12T00:08:43.628Z,61.37
2018-04-12T00:11:11.890Z,58.83
2018-04-12T00:13:40.473Z,60.30
2018-04-12T00:16:08.778Z,60.03
2018-04-12T00:18:37.080Z,59.10
2018-04-12T00:21:06.032Z,57.63
2018-04-12T00:23:35.157Z,60.13
2018-04-12T00:26:03.403Z,57.53
2018-04-12T00:28:31.760Z,58.63
2018-04-12T00:31:00.028Z,59.77
2018-04-12T00:33:29.182Z,55.93
2018-04-12T00:35:57.549Z,57.20
2018-04-12T00:38:25.737Z,56.47
2018-04-12T00:40:53.997Z,53.87
2018-04-12T00:43:22.250Z,56.33
2018-04-12T00:45:50.468Z,58.73
2018-04-12T00:48:18.805Z,59.53
2018-04-12T00:50:47.073Z,61.17
2018-04-12T00:53:27.346Z,57.63
2018-04-12T00:55:55.775Z,56.70
2018-04-12T00:58:24.045Z,52.50
2018-04-12T01:00:52.284Z,53.43
2018-04-12T01:03:20.637Z,50.73
2018-04-12T01:05:49.972Z,50.17
2018-04-12T01:08:18.219Z,50.30
2018-04-12T01:10:46.453Z,50.93
2018-04-12T01:13:14.665Z,51.57
2018-04-12T01:15:42.895Z,50.03
2018-04-12T01:18:11.969Z,50.77
2018-04-12T01:20:40.822Z,51.87
2018-04-12T01:23:09.826Z,52.30
2018-04-12T01:25:38.169Z,55.43
2018-04-12T01:28:06.564Z,53.07
2018-04-12T01:30:34.841Z,53.43
2018-04-12T01:33:15.156Z,54.53
2018-04-12T01:35:43.472Z,54.37
2018-04-12T01:38:11.706Z,52.73
2018-04-12T01:40:39.947Z,52.57
2018-04-12T01:43:09.223Z,52.87
2018-04-12T01:45:38.321Z,51.47
2018-04-12T01:48:06.689Z,55.10
2018-04-12T01:50:34.980Z,51.30
2018-04-12T01:53:04.031Z,54.53
2018-04-12T01:55:32.282Z,53.83
2018-04-12T01:58:01.538Z,54.40
2018-04-12T02:00:29.780Z,53.43
2018-04-12T02:02:58.838Z,57.47
2018-04-12T02:05:27.051Z,55.90
2018-04-12T02:07:56.086Z,58.70
2018-04-12T02:10:24.437Z,59.27
2018-04-12T02:12:53.505Z,58.63
2018-04-12T02:15:21.903Z,56.23
2018-04-12T02:17:50.887Z,59.07
2018-04-12T02:20:19.887Z,56.33
2018-04-12T02:22:48.940Z,56.33
2018-04-12T02:25:17.191Z,56.27
2018-04-12T02:27:45.419Z,59.10
2018-04-12T02:30:13.692Z,59.13
2018-04-12T02:32:43.437Z,56.47
2018-04-12T02:35:11.655Z,57.33
2018-04-12T02:37:40.167Z,58.90
2018-04-12T02:40:08.480Z,57.73
2018-04-12T02:42:36.723Z,61.23
2018-04-12T02:45:04.973Z,58.37
2018-04-12T02:47:33.312Z,63.83
2018-04-12T02:50:02.437Z,64.90
2018-04-12T02:52:30.805Z,67.00
2018-04-12T02:54:59.015Z,63.30
2018-04-12T02:57:27.267Z,65.43
2018-04-12T02:59:55.473Z,65.87
2018-04-12T03:02:23.731Z,69.47
2018-04-12T03:04:52.060Z,69.77
2018-04-12T03:07:20.363Z,68.97
2018-04-12T03:09:48.567Z,65.23
2018-04-12T03:12:16.844Z,67.40
2018-04-12T03:14:45.100Z,64.97
2018-04-12T03:17:14.216Z,70.47
2018-04-12T03:19:42.498Z,67.70
2018-04-12T03:22:10.997Z,64.13
2018-04-12T03:24:39.223Z,67.97
2018-04-12T03:27:07.534Z,66.10
2018-04-12T03:29:38.071Z,67.93
2018-04-12T03:34:42.888Z,65.17
2018-04-12T03:37:11.208Z,67.57
2018-04-12T03:39:39.492Z,64.47
2018-04-12T03:42:07.751Z,63.17
2018-04-12T03:44:35.997Z,59.77
2018-04-12T03:47:04.241Z,59.97
2018-04-12T03:49:33.047Z,61.00
2018-04-12T03:52:02.082Z,59.07
2018-04-12T03:54:30.308Z,61.10
2018-04-12T03:56:59.550Z,72.87
2018-04-12T03:59:27.773Z,58.30
2018-04-12T04:01:56.141Z,58.07
2018-04-12T04:04:24.516Z,58.40
2018-04-12T04:06:54.311Z,67.50
2018-04-12T04:09:22.601Z,55.40
2018-04-12T04:11:50.817Z,55.60
2018-04-12T04:14:31.968Z,64.67
2018-04-12T04:17:12.345Z,62.37
2018-04-12T04:20:04.558Z,65.73
2018-04-12T04:22:32.846Z,69.57
2018-04-12T04:25:03.675Z,69.03
2018-04-12T04:27:32.045Z,73.83
2018-04-12T04:30:00.322Z,86.60
2018-04-12T04:32:29.337Z,89.33
2018-04-12T04:34:57.715Z,110.07
2018-04-12T04:37:26.106Z,93.03
2018-04-12T04:39:54.557Z,104.43
2018-04-12T04:42:23.659Z,100.70
2018-04-12T04:44:51.923Z,95.73
2018-04-12T04:47:20.172Z,96.67
2018-04-12T04:49:48.407Z,94.63
2018-04-12T04:52:16.781Z,101.00
2018-04-12T04:54:45.642Z,109.37
2018-04-12T04:57:14.083Z,107.00
2018-04-12T04:59:43.136Z,101.33
2018-04-12T05:02:11.580Z,103.93
2018-04-12T05:04:39.832Z,105.07
2018-04-12T05:07:08.114Z,106.30
2018-04-12T05:09:36.478Z,104.00
2018-04-12T05:12:05.510Z,122.60
2018-04-12T05:14:33.748Z,104.13
2018-04-12T05:17:03.621Z,111.90
2018-04-12T05:19:32.132Z,117.63
2018-04-12T05:22:01.332Z,109.60
2018-04-12T05:24:29.651Z,105.47
2018-04-12T05:26:57.993Z,120.27
2018-04-12T05:29:26.270Z,99.77
2018-04-12T05:31:54.600Z,121.57
2018-04-12T05:34:23.614Z,114.07
2018-04-12T05:36:52.756Z,121.40
2018-04-12T05:39:21.149Z,120.57
2018-04-12T05:41:49.503Z,125.97
2018-04-12T05:44:17.780Z,122.37
2018-04-12T05:46:46.090Z,126.30
2018-04-12T05:49:15.872Z,129.63
2018-04-12T05:51:44.071Z,130.20
2018-04-12T05:54:12.633Z,115.03
2018-04-12T05:56:40.861Z,127.07
2018-04-12T05:59:10.530Z,123.53
2018-04-12T06:01:38.998Z,103.13
2018-04-12T06:04:07.384Z,110.57
2018-04-12T06:06:35.688Z,106.90
2018-04-12T06:09:04.230Z,106.00
2018-04-12T06:11:32.526Z,107.93
2018-04-12T06:14:00.776Z,107.90
2018-04-12T06:16:29.078Z,104.67
2018-04-12T06:18:57.327Z,108.77
2018-04-12T06:21:27.085Z,105.90
2018-04-12T06:23:55.349Z,103.33
2018-04-12T06:26:23.719Z,105.67
2018-04-12T06:28:52.297Z,105.70
2018-04-12T06:31:20.579Z,101.97
2018-04-12T06:33:49.213Z,96.07
2018-04-12T06:36:18.481Z,95.93
2018-04-12T06:38:46.702Z,98.63
2018-04-12T06:41:15.813Z,122.80
2018-04-12T06:43:44.159Z,101.77
2018-04-12T06:46:14.015Z,93.57
2018-04-12T06:48:42.431Z,96.60
2018-04-12T06:51:10.856Z,95.87
2018-04-12T06:53:39.871Z,95.03
2018-04-12T06:56:08.925Z,91.23
2018-04-12T06:58:37.165Z,92.20
2018-04-12T07:01:05.504Z,94.57
2018-04-12T07:03:34.080Z,90.63
2018-04-12T07:06:02.262Z,94.73
2018-04-12T07:08:31.413Z,93.90
2018-04-12T07:10:59.697Z,90.43
2018-04-12T07:13:28.067Z,87.97
2018-04-12T07:15:56.342Z,89.10
2018-04-12T07:18:24.580Z,91.67
2018-04-12T07:20:52.815Z,90.67
2018-04-12T07:23:21.067Z,89.80
2018-04-12T07:25:49.383Z,88.07
2018-04-12T07:28:17.641Z,91.77
2018-04-12T07:30:45.913Z,89.57
2018-04-12T07:33:14.129Z,88.53
2018-04-12T07:35:43.347Z,87.23
2018-04-12T07:38:14.271Z,87.77
2018-04-12T07:40:43.765Z,87.23
2018-04-12T07:43:12.820Z,89.87
2018-04-12T07:45:41.825Z,88.80
2018-04-12T07:48:10.055Z,93.30
2018-04-12T07:50:39.203Z,94.33
2018-04-12T07:53:07.437Z,92.30
2018-04-12T07:55:36.410Z,88.93
2018-04-12T07:58:04.637Z,85.53
2018-04-12T08:00:32.857Z,88.40
2018-04-12T08:03:02.010Z,81.80
2018-04-12T08:05:30.245Z,78.20
2018-04-12T08:08:00.035Z,81.70
2018-04-12T08:10:29.094Z,83.70
2018-04-12T08:12:57.313Z,84.20
2018-04-12T08:15:25.562Z,80.60
2018-04-12T08:17:53.806Z,79.20
2018-04-12T08:20:22.089Z,77.90
2018-04-12T08:22:50.312Z,81.83
2018-04-12T08:25:18.605Z,77.07
2018-04-12T08:27:46.805Z,72.63
2018-04-12T08:30:15.030Z,77.70
2018-04-12T08:32:44.805Z,73.60
2018-04-12T08:35:13.111Z,70.93
2018-04-12T08:37:41.310Z,69.83
2018-04-12T08:40:10.414Z,70.13
2018-04-12T08:42:38.633Z,65.93
2018-04-12T08:45:07.667Z,67.30
2018-04-12T08:47:36.039Z,64.67
2018-04-12T08:50:04.733Z,66.37
2018-04-12T08:52:32.953Z,62.17
2018-04-12T08:55:01.978Z,68.23
2018-04-12T08:57:30.195Z,66.07
2018-04-12T08:59:58.423Z,64.47
2018-04-12T09:02:27.617Z,64.57
2018-04-12T09:04:56.641Z,58.17
2018-04-12T09:07:25.029Z,56.80
2018-04-12T09:09:53.287Z,54.63
2018-04-12T09:12:21.585Z,56.50
2018-04-12T09:14:49.841Z,57.60
2018-04-12T09:17:18.262Z,57.87
2018-04-12T09:19:46.769Z,55.73
2018-04-12T09:22:15.750Z,56.93
2018-04-12T09:24:43.939Z,55.50
2018-04-12T09:27:12.134Z,54.77
2018-04-12T09:29:41.070Z,52.03
2018-04-12T09:32:09.257Z,52.73
2018-04-12T09:34:37.436Z,54.70
2018-04-12T09:37:05.620Z,54.20
2018-04-12T09:39:34.269Z,53.60
2018-04-12T09:42:02.437Z,53.20
2018-04-12T09:44:30.653Z,49.73
2018-04-12T09:46:59.599Z,50.97
2018-04-12T09:49:28.604Z,49.93
2018-04-12T09:51:56.773Z,50.27
2018-04-12T09:54:24.989Z,49.03
2018-04-12T09:56:53.245Z,49.40
2018-04-12T09:59:21.452Z,49.03
2018-04-12T10:01:54.529Z,49.30
2018-04-12T10:04:27.707Z,50.43
2018-04-12T10:07:01.561Z,49.73
2018-04-12T10:09:29.828Z,50.00
2018-04-12T10:11:58.132Z,50.43
2018-04-12T10:14:27.131Z,52.20
2018-04-12T10:16:55.448Z,50.80
2018-04-12T10:19:23.816Z,51.93
2018-04-12T10:21:52.919Z,52.23
2018-04-12T10:24:21.314Z,49.77
2018-04-12T10:26:49.527Z,50.80
2018-04-12T10:29:18.610Z,50.53
2018-04-12T10:31:48.020Z,50.53
2018-04-12T10:34:17.012Z,50.50
2018-04-12T10:36:46.046Z,51.17
2018-04-12T10:39:14.316Z,52.40
2018-04-12T10:41:42.844Z,49.37
2018-04-12T10:44:11.917Z,50.07
2018-04-12T10:46:40.134Z,48.73
2018-04-12T10:49:08.536Z,48.13
2018-04-12T10:51:36.802Z,49.03
2018-04-12T10:54:06.154Z,49.97
2018-04-12T10:56:34.481Z,49.80
2018-04-12T10:59:02.781Z,46.87
2018-04-12T11:01:31.018Z,48.07
2018-04-12T11:03:59.243Z,48.40
2018-04-12T11:06:28.338Z,50.07
2018-04-12T11:08:57.533Z,49.00
2018-04-12T11:11:25.813Z,47.40
2018-04-12T11:13:54.794Z,49.97
2018-04-12T11:16:23.757Z,51.27
2018-04-12T11:18:52.061Z,50.03
2018-04-12T11:21:20.332Z,49.77
2018-04-12T11:23:48.675Z,50.77
2018-04-12T11:26:16.896Z,49.97
2018-04-12T11:28:45.142Z,48.63
2018-04-12T11:31:13.425Z,51.27
2018-04-12T11:33:41.705Z,50.43
2018-04-12T11:36:09.945Z,49.97
2018-04-12T11:38:38.341Z,49.60
2018-04-12T11:41:06.515Z,50.83
2018-04-12T11:43:34.777Z,50.13
2018-04-12T11:46:03.061Z,48.50
2018-04-12T11:48:31.347Z,47.53
2018-04-12T11:51:00.552Z,46.53
2018-04-12T11:53:28.826Z,46.00
2018-04-12T11:55:57.107Z,47.57
2018-04-12T11:58:26.328Z,48.93
2018-04-12T12:00:54.647Z,46.73
2018-04-12T12:03:23.622Z,45.17
2018-04-12T12:05:51.864Z,46.83
2018-04-12T12:08:20.074Z,45.50
2018-04-12T12:10:49.835Z,44.83
2018-04-12T12:13:18.067Z,46.93
2018-04-12T12:15:46.317Z,46.23
2018-04-12T12:18:14.525Z,45.67
2018-04-12T12:20:43.508Z,46.93
2018-04-12T12:23:12.671Z,48.07
2018-04-12T12:25:40.838Z,45.57
2018-04-12T12:28:10.083Z,44.90
2018-04-12T12:30:39.137Z,47.10
2018-04-12T12:33:07.432Z,44.80
2018-04-12T12:35:35.686Z,48.50
2018-04-12T12:38:03.921Z,47.03
2018-04-12T12:40:32.305Z,43.53
2018-04-12T12:43:00.547Z,46.53
2018-04-12T12:45:28.831Z,46.67
2018-04-12T12:47:58.007Z,47.57
2018-04-12T12:50:27.049Z,46.90
2018-04-12T12:52:56.120Z,48.63
2018-04-12T12:55:26.069Z,46.10
2018-04-12T12:57:57.747Z,47.40
2018-04-12T13:00:26.046Z,48.43
2018-04-12T13:02:54.261Z,48.60
2018-04-12T13:05:22.512Z,50.07
2018-04-12T13:07:50.892Z,48.90
2018-04-12T13:10:19.371Z,49.90
2018-04-12T13:12:47.634Z,49.70
2018-04-12T13:15:15.990Z,48.73
2018-04-12T13:17:45.022Z,50.63
2018-04-12T13:20:13.220Z,49.17
2018-04-12T13:22:42.323Z,47.93
2018-04-12T13:25:10.553Z,48.57
2018-04-12T13:27:38.927Z,49.37
2018-04-12T13:30:07.226Z,49.87
2018-04-12T13:32:35.485Z,48.27
2018-04-12T13:35:03.884Z,49.77
2018-04-12T13:37:32.107Z,50.07
2018-04-12T13:40:01.207Z,48.47
2018-04-12T13:42:30.269Z,48.33
2018-04-12T13:44:58.501Z,48.90
2018-04-12T13:47:27.553Z,49.33
2018-04-12T13:49:56.642Z,49.40
2018-04-12T13:52:24.865Z,48.60
2018-04-12T13:54:53.896Z,48.37
2018-04-12T13:57:22.895Z,48.27
2018-04-12T13:59:51.184Z,49.27
2018-04-12T14:02:19.414Z,47.40
2018-04-12T14:04:48.663Z,47.03
2018-04-12T14:07:17.108Z,47.23
2018-04-12T14:09:45.636Z,49.17
2018-04-12T14:12:14.485Z,49.23
2018-04-12T14:14:42.708Z,47.07
2018-04-12T14:17:12.541Z,49.00
2018-04-12T14:19:41.089Z,50.30
2018-04-12T14:22:09.363Z,49.50
2018-04-12T14:24:37.691Z,48.20
2018-04-12T14:27:06.741Z,46.43
2018-04-12T14:29:35.661Z,47.63
2018-04-12T14:32:03.867Z,48.50
2018-04-12T14:34:33.766Z,49.07
2018-04-12T14:37:02.810Z,47.37
2018-04-12T14:39:31.099Z,46.93
2018-04-12T14:41:59.306Z,47.53
2018-04-12T14:44:28.077Z,48.90
2018-04-12T14:46:56.337Z,47.20
2018-04-12T14:49:24.669Z,46.00
2018-04-12T14:51:54.157Z,45.80
2018-04-12T14:54:23.144Z,47.63
2018-04-12T14:56:52.189Z,47.97
2018-04-12T14:59:20.505Z,48.90
2018-04-12T15:01:48.737Z,48.13
2018-04-12T15:04:17.201Z,48.63
2018-04-12T15:06:46.469Z,49.50
2018-04-12T15:09:14.701Z,48.63
2018-04-12T15:11:43.829Z,48.57
2018-04-12T15:14:12.898Z,49.47
2018-04-12T15:16:41.220Z,48.83
2018-04-12T15:19:10.389Z,47.50
2018-04-12T15:21:38.657Z,48.60
2018-04-12T15:24:06.897Z,50.17
2018-04-12T15:26:35.234Z,52.67
2018-04-12T15:29:03.518Z,51.00
2018-04-12T15:31:31.916Z,52.97
2018-04-12T15:34:00.990Z,51.00
2018-04-12T15:36:29.278Z,52.13
2018-04-12T15:38:57.527Z,51.07
2018-04-12T15:41:25.780Z,54.67
2018-04-12T15:43:54.035Z,54.10
2018-04-12T15:46:23.214Z,52.30
2018-04-12T15:48:51.456Z,50.50
2018-04-12T15:51:19.715Z,53.73
2018-04-12T15:53:48.027Z,59.40
2018-04-12T15:56:22.251Z,111.27
2018-04-12T15:58:50.586Z,84.07
2018-04-12T16:01:19.768Z,65.40
2018-04-12T16:03:47.983Z,53.37
2018-04-12T16:06:16.286Z,53.50
2018-04-12T16:08:44.662Z,53.87
2018-04-12T16:11:12.856Z,53.77
2018-04-12T16:13:41.144Z,53.27
2018-04-12T16:16:09.389Z,50.90
2018-04-12T16:18:37.646Z,53.37
2018-04-12T16:21:07.541Z,52.87
2018-04-12T16:23:36.622Z,53.80
2018-04-12T16:26:04.886Z,53.93
2018-04-12T16:28:33.260Z,55.43
2018-04-12T16:31:02.315Z,53.57
2018-04-12T16:33:30.581Z,54.77
2018-04-12T16:35:58.817Z,52.90
2018-04-12T16:38:27.051Z,55.13
2018-04-12T16:40:55.444Z,53.00
2018-04-12T16:43:24.658Z,51.47
2018-04-12T16:45:52.913Z,52.83
2018-04-12T16:48:21.187Z,53.27
2018-04-12T16:50:49.628Z,50.87
2018-04-12T16:53:18.767Z,50.33
2018-04-12T16:55:47.036Z,51.33
2018-04-12T16:58:15.255Z,51.67
2018-04-12T17:00:43.506Z,51.77
2018-04-12T17:03:12.688Z,53.00
2018-04-12T17:05:41.108Z,51.23
2018-04-12T17:08:10.072Z,49.30
2018-04-12T17:10:38.405Z,48.27
2018-04-12T17:13:06.615Z,49.27
2018-04-12T17:15:34.984Z,49.60
2018-04-12T17:18:03.952Z,48.73
2018-04-12T17:20:32.261Z,48.23
2018-04-12T17:23:01.228Z,50.40
2018-04-12T17:25:29.458Z,48.60
2018-04-12T17:27:57.794Z,48.20
2018-04-12T17:30:26.030Z,48.97
2018-04-12T17:32:54.695Z,49.50
2018-04-12T17:35:23.070Z,46.47
2018-04-12T17:37:51.297Z,47.53
2018-04-12T17:40:19.621Z,51.10
2018-04-12T17:42:48.057Z,48.67
2018-04-12T17:45:16.549Z,52.13
2018-04-12T17:47:44.817Z,48.73
2018-04-12T17:50:13.038Z,50.80
2018-04-12T17:52:41.544Z,50.80
2018-04-12T17:55:10.549Z,46.87
2018-04-12T17:57:38.763Z,50.10
2018-04-12T18:00:07.831Z,49.03
2018-04-12T18:02:36.095Z,49.13
2018-04-12T18:05:04.497Z,48.07
2018-04-12T18:07:33.517Z,48.63
2018-04-12T18:10:02.625Z,45.07
2018-04-12T18:12:31.614Z,49.37
2018-04-12T18:15:00.688Z,47.27
2018-04-12T18:17:29.867Z,48.37
2018-04-12T18:19:58.978Z,50.13
2018-04-12T18:22:28.176Z,52.13
2018-04-12T18:24:56.381Z,43.33
2018-04-12T18:27:26.141Z,40.70
2018-04-12T18:29:54.533Z,41.07
2018-04-12T18:32:22.831Z,41.80
2018-04-12T18:34:51.054Z,39.90
2018-04-12T18:37:19.294Z,46.17
2018-04-12T18:39:47.856Z,47.07
2018-04-12T18:42:16.139Z,46.67
2018-04-12T18:44:51.174Z,49.70
2018-04-12T18:47:23.169Z,49.70
2018-04-12T18:49:53.305Z,50.37
2018-04-12T18:52:23.542Z,52.40
2018-04-12T18:54:51.773Z,54.73
2018-04-12T18:57:20.033Z,52.93
2018-04-12T18:59:48.433Z,53.67
2018-04-12T19:02:17.499Z,53.90
2018-04-12T19:04:45.718Z,54.40
2018-04-12T19:07:14.008Z,51.33
2018-04-12T19:09:43.001Z,55.70
2018-04-12T19:12:13.236Z,56.93
2018-04-12T19:14:41.650Z,52.73
2018-04-12T19:17:10.976Z,54.40
2018-04-12T19:19:39.227Z,53.70
2018-04-12T19:22:07.496Z,51.30
2018-04-12T19:24:37.424Z,57.20
2018-04-12T19:27:05.739Z,53.30
2018-04-12T19:29:34.809Z,53.10
2018-04-12T19:32:03.100Z,49.47
2018-04-12T19:34:31.796Z,46.47
2018-04-12T19:37:00.153Z,44.93
2018-04-12T19:39:28.332Z,44.90
2018-04-12T19:41:56.590Z,49.37
2018-04-12T19:44:25.055Z,64.43
2018-04-12T19:46:53.376Z,59.00
2018-04-12T19:49:21.849Z,55.67
2018-04-12T19:51:50.066Z,63.73
2018-04-12T19:54:19.255Z,61.00
2018-04-12T19:56:47.491Z,61.57
2018-04-12T19:59:15.718Z,60.20
2018-04-12T20:01:43.934Z,56.20
2018-04-12T20:04:12.195Z,55.43
2018-04-12T20:06:40.923Z,53.73
2018-04-12T20:09:09.208Z,51.80
2018-04-12T20:11:37.397Z,50.77
2018-04-12T20:14:06.421Z,49.10
2018-04-12T20:16:35.387Z,49.50
2018-04-12T20:19:06.722Z,43.63
2018-04-12T20:21:36.174Z,42.97
2018-04-12T20:24:05.132Z,42.10
2018-04-12T20:26:33.515Z,39.97
2018-04-12T20:29:01.975Z,33.97
2018-04-12T20:31:31.176Z,35.20
2018-04-12T20:33:59.461Z,32.70
2018-04-12T20:36:27.685Z,28.87
2018-04-12T20:38:55.927Z,29.30
2018-04-12T20:41:24.227Z,36.63
2018-04-12T20:43:52.484Z,35.90
2018-04-12T20:46:20.725Z,34.30
2018-04-12T20:48:48.953Z,40.33
2018-04-12T20:51:17.250Z,46.83
2018-04-12T20:53:46.385Z,53.33
2018-04-12T20:56:14.680Z,60.87
2018-04-12T20:58:42.904Z,56.37
2018-04-12T21:01:11.313Z,59.53
2018-04-12T21:03:39.623Z,62.57
2018-04-12T21:06:08.797Z,68.90
2018-04-12T21:08:37.115Z,66.13
2018-04-12T21:11:06.121Z,71.00
2018-04-12T21:13:35.275Z,75.77
2018-04-12T21:16:03.549Z,74.40
2018-04-12T21:18:32.379Z,71.47
2018-04-12T21:21:00.734Z,70.67
2018-04-12T21:23:29.098Z,70.77
2018-04-12T21:25:57.309Z,69.33
2018-04-12T21:28:25.572Z,70.90
2018-04-12T21:30:54.027Z,64.00
2018-04-12T21:33:23.030Z,72.17
2018-04-12T21:35:51.540Z,62.80
2018-04-12T21:38:19.741Z,66.30
2018-04-12T21:40:48.603Z,65.10
2018-04-12T21:43:17.759Z,62.57
2018-04-12T21:45:46.041Z,58.23
2018-04-12T21:48:14.317Z,58.37
2018-04-12T21:50:42.596Z,63.20
2018-04-12T21:53:11.035Z,63.33
2018-04-12T21:55:39.284Z,60.40
2018-04-12T21:58:08.140Z,58.30
2018-04-12T22:00:36.417Z,57.37
2018-04-12T22:03:05.917Z,57.87
2018-04-12T22:05:34.173Z,61.03
2018-04-12T22:08:03.176Z,63.90
2018-04-12T22:10:32.606Z,62.57
2018-04-12T22:13:00.938Z,65.20
2018-04-12T22:15:30.670Z,61.17
2018-04-12T22:17:58.864Z,62.37
2018-04-12T22:20:27.091Z,60.93
2018-04-12T22:22:56.133Z,59.00
2018-04-12T22:25:25.368Z,59.37
2018-04-12T22:27:54.267Z,66.67
2018-04-12T22:30:22.602Z,68.33
2018-04-12T22:32:51.583Z,67.13
2018-04-12T22:35:20.213Z,68.67
2018-04-12T22:37:48.575Z,70.63
2018-04-12T22:40:16.838Z,71.43
2018-04-12T22:42:46.083Z,70.47
2018-04-12T22:45:15.140Z,69.80
2018-04-12T22:47:43.366Z,73.30
2018-04-12T22:50:11.632Z,75.90
2018-04-12T22:52:40.324Z,74.73
2018-04-12T22:55:08.527Z,76.20
2018-04-12T22:57:36.871Z,75.17
2018-04-12T23:00:10.817Z,72.07
2018-04-12T23:02:39.232Z,61.33
2018-04-12T23:05:07.484Z,57.23
2018-04-12T23:07:36.564Z,51.53
2018-04-12T23:10:05.585Z,49.20
2018-04-12T23:12:34.632Z,47.77
2018-04-12T23:15:03.048Z,44.73
2018-04-12T23:17:32.100Z,43.60
2018-04-12T23:20:00.275Z,42.87
2018-04-12T23:22:28.495Z,38.97
2018-04-12T23:24:57.505Z,38.57
2018-04-12T23:27:25.778Z,37.27
2018-04-12T23:29:54.875Z,36.53
2018-04-12T23:32:23.129Z,36.20
2018-04-12T23:34:51.343Z,35.00
2018-04-12T23:37:20.370Z,34.00
2018-04-12T23:39:48.786Z,34.97
2018-04-12T23:42:16.996Z,34.40
2018-04-12T23:44:45.953Z,32.63
2018-04-12T23:47:14.381Z,32.10
2018-04-12T23:49:43.435Z,32.57
2018-04-12T23:52:11.798Z,31.63
2018-04-12T23:54:40.157Z,32.40
2018-04-12T23:57:08.372Z,30.33
2018-04-12T23:59:36.719Z,31.13
